<?xml version="1.0" encoding="UTF-8" standalone="no" ?>
<gpx xmlns="http://www.topografix.com/GPX/1/1" xmlns:xsi="http://www.w3.org/2001/XMLSchema-instance" xsi:schemaLocation="http://www.topografix.com/GPX/1/1 http://www.topografix.com/GPX/1/1/gpx.xsd" version="1.1" creator="VisuGPX - https://www.visugpx.com">
  <metadata>
    <name>j10 Queyras, Brunissard =&gt; refuge de Furfande</name>
    <desc><![CDATA[Au départ de Brunissard le long de l'ancien canal d'irrigation, montée à la crête de l'Échelle puis du col de Furfande, descente aux Granges de Furfande et arrivée au refuge.]]></desc>
  </metadata>
  <trk>
    <name><![CDATA[j10 Queyras, Brunissard => refuge de Furfande_1]]></name>
    <extensions>
      <line xmlns="http://www.topografix.com/GPX/gpx_style/0/2">
        <color>0000FF</color>
        <width>4</width>
      </line>
    </extensions>
    <trkseg>
      <trkpt lat="44.79275" lon="6.72749">
        <ele>1729.3</ele>
        <time>2021-07-13T06:21:22Z</time>
      </trkpt>
      <trkpt lat="44.79256" lon="6.7275">
        <ele>1731</ele>
        <time>2021-07-13T06:21:52Z</time>
      </trkpt>
      <trkpt lat="44.79227" lon="6.7277">
        <ele>1722.9</ele>
        <time>2021-07-13T06:22:23Z</time>
      </trkpt>
      <trkpt lat="44.79194" lon="6.72803">
        <ele>1719.3</ele>
        <time>2021-07-13T06:22:53Z</time>
      </trkpt>
      <trkpt lat="44.79177" lon="6.72826">
        <ele>1721.8</ele>
        <time>2021-07-13T06:23:24Z</time>
      </trkpt>
      <trkpt lat="44.79186" lon="6.72825">
        <ele>1725.8</ele>
        <time>2021-07-13T06:24:30Z</time>
      </trkpt>
      <trkpt lat="44.79178" lon="6.72819">
        <ele>1726.8</ele>
        <time>2021-07-13T06:25:35Z</time>
      </trkpt>
      <trkpt lat="44.79169" lon="6.72811">
        <ele>1728</ele>
        <time>2021-07-13T06:26:09Z</time>
      </trkpt>
      <trkpt lat="44.79161" lon="6.72816">
        <ele>1721.8</ele>
        <time>2021-07-13T06:26:48Z</time>
      </trkpt>
      <trkpt lat="44.79142" lon="6.72855">
        <ele>1714.2</ele>
        <time>2021-07-13T06:27:18Z</time>
      </trkpt>
      <trkpt lat="44.79123" lon="6.7288">
        <ele>1701.2</ele>
        <time>2021-07-13T06:27:48Z</time>
      </trkpt>
      <trkpt lat="44.79111" lon="6.72919">
        <ele>1704.8</ele>
        <time>2021-07-13T06:28:19Z</time>
      </trkpt>
      <trkpt lat="44.79087" lon="6.72952">
        <ele>1700.3</ele>
        <time>2021-07-13T06:28:50Z</time>
      </trkpt>
      <trkpt lat="44.79066" lon="6.7298">
        <ele>1697.3</ele>
        <time>2021-07-13T06:29:21Z</time>
      </trkpt>
      <trkpt lat="44.79054" lon="6.72989">
        <ele>1689.1</ele>
        <time>2021-07-13T06:29:51Z</time>
      </trkpt>
      <trkpt lat="44.79048" lon="6.73">
        <ele>1689.1</ele>
        <time>2021-07-13T06:30:31Z</time>
      </trkpt>
      <trkpt lat="44.79022" lon="6.73023">
        <ele>1696</ele>
        <time>2021-07-13T06:31:01Z</time>
      </trkpt>
      <trkpt lat="44.78993" lon="6.73047">
        <ele>1691.9</ele>
        <time>2021-07-13T06:31:32Z</time>
      </trkpt>
      <trkpt lat="44.78976" lon="6.73079">
        <ele>1685.1</ele>
        <time>2021-07-13T06:32:02Z</time>
      </trkpt>
      <trkpt lat="44.7895" lon="6.73109">
        <ele>1686.9</ele>
        <time>2021-07-13T06:32:33Z</time>
      </trkpt>
      <trkpt lat="44.78919" lon="6.73113">
        <ele>1689.2</ele>
        <time>2021-07-13T06:33:04Z</time>
      </trkpt>
      <trkpt lat="44.78901" lon="6.73136">
        <ele>1686.5</ele>
        <time>2021-07-13T06:33:34Z</time>
      </trkpt>
      <trkpt lat="44.78866" lon="6.73152">
        <ele>1683.7</ele>
        <time>2021-07-13T06:34:04Z</time>
      </trkpt>
      <trkpt lat="44.78843" lon="6.73145">
        <ele>1684.4</ele>
        <time>2021-07-13T06:34:35Z</time>
      </trkpt>
      <trkpt lat="44.78815" lon="6.73141">
        <ele>1679.7</ele>
        <time>2021-07-13T06:35:06Z</time>
      </trkpt>
      <trkpt lat="44.78787" lon="6.73133">
        <ele>1679.3</ele>
        <time>2021-07-13T06:35:37Z</time>
      </trkpt>
      <trkpt lat="44.7876" lon="6.73126">
        <ele>1677.9</ele>
        <time>2021-07-13T06:36:07Z</time>
      </trkpt>
      <trkpt lat="44.78719" lon="6.73129">
        <ele>1676.7</ele>
        <time>2021-07-13T06:36:37Z</time>
      </trkpt>
      <trkpt lat="44.78695" lon="6.73131">
        <ele>1674.5</ele>
        <time>2021-07-13T06:37:08Z</time>
      </trkpt>
      <trkpt lat="44.78657" lon="6.73151">
        <ele>1674.5</ele>
        <time>2021-07-13T06:37:38Z</time>
      </trkpt>
      <trkpt lat="44.78626" lon="6.73153">
        <ele>1672.3</ele>
        <time>2021-07-13T06:38:08Z</time>
      </trkpt>
      <trkpt lat="44.78598" lon="6.73148">
        <ele>1672.9</ele>
        <time>2021-07-13T06:38:38Z</time>
      </trkpt>
      <trkpt lat="44.78561" lon="6.73155">
        <ele>1672.8</ele>
        <time>2021-07-13T06:39:09Z</time>
      </trkpt>
      <trkpt lat="44.78529" lon="6.73167">
        <ele>1670.9</ele>
        <time>2021-07-13T06:39:39Z</time>
      </trkpt>
      <trkpt lat="44.7849" lon="6.73177">
        <ele>1674.9</ele>
        <time>2021-07-13T06:40:10Z</time>
      </trkpt>
      <trkpt lat="44.78458" lon="6.73178">
        <ele>1677</ele>
        <time>2021-07-13T06:40:40Z</time>
      </trkpt>
      <trkpt lat="44.78426" lon="6.73184">
        <ele>1679.4</ele>
        <time>2021-07-13T06:41:11Z</time>
      </trkpt>
      <trkpt lat="44.78402" lon="6.73188">
        <ele>1686.4</ele>
        <time>2021-07-13T06:41:42Z</time>
      </trkpt>
      <trkpt lat="44.78373" lon="6.73206">
        <ele>1687.7</ele>
        <time>2021-07-13T06:42:12Z</time>
      </trkpt>
      <trkpt lat="44.78338" lon="6.73209">
        <ele>1686.2</ele>
        <time>2021-07-13T06:42:43Z</time>
      </trkpt>
      <trkpt lat="44.7831" lon="6.73221">
        <ele>1685.5</ele>
        <time>2021-07-13T06:43:14Z</time>
      </trkpt>
      <trkpt lat="44.78279" lon="6.73228">
        <ele>1687</ele>
        <time>2021-07-13T06:43:44Z</time>
      </trkpt>
      <trkpt lat="44.78246" lon="6.73233">
        <ele>1689.9</ele>
        <time>2021-07-13T06:44:15Z</time>
      </trkpt>
      <trkpt lat="44.78218" lon="6.73226">
        <ele>1696.1</ele>
        <time>2021-07-13T06:44:46Z</time>
      </trkpt>
      <trkpt lat="44.78186" lon="6.73229">
        <ele>1696.1</ele>
        <time>2021-07-13T06:45:17Z</time>
      </trkpt>
      <trkpt lat="44.7816" lon="6.73224">
        <ele>1692.7</ele>
        <time>2021-07-13T06:45:48Z</time>
      </trkpt>
      <trkpt lat="44.78125" lon="6.73226">
        <ele>1697.6</ele>
        <time>2021-07-13T06:46:19Z</time>
      </trkpt>
      <trkpt lat="44.78096" lon="6.73217">
        <ele>1696.2</ele>
        <time>2021-07-13T06:46:49Z</time>
      </trkpt>
      <trkpt lat="44.78087" lon="6.73218">
        <ele>1702.5</ele>
        <time>2021-07-13T06:48:05Z</time>
      </trkpt>
      <trkpt lat="44.78097" lon="6.73173">
        <ele>1707.3</ele>
        <time>2021-07-13T06:48:36Z</time>
      </trkpt>
      <trkpt lat="44.78096" lon="6.73131">
        <ele>1708.3</ele>
        <time>2021-07-13T06:49:07Z</time>
      </trkpt>
      <trkpt lat="44.78088" lon="6.73079">
        <ele>1709</ele>
        <time>2021-07-13T06:49:38Z</time>
      </trkpt>
      <trkpt lat="44.78086" lon="6.73038">
        <ele>1710.2</ele>
        <time>2021-07-13T06:50:08Z</time>
      </trkpt>
      <trkpt lat="44.78074" lon="6.73029">
        <ele>1709.6</ele>
        <time>2021-07-13T06:50:38Z</time>
      </trkpt>
      <trkpt lat="44.7804" lon="6.73048">
        <ele>1709</ele>
        <time>2021-07-13T06:51:09Z</time>
      </trkpt>
      <trkpt lat="44.78022" lon="6.73083">
        <ele>1706.6</ele>
        <time>2021-07-13T06:51:39Z</time>
      </trkpt>
      <trkpt lat="44.77995" lon="6.73095">
        <ele>1706.2</ele>
        <time>2021-07-13T06:52:09Z</time>
      </trkpt>
      <trkpt lat="44.77962" lon="6.73086">
        <ele>1704.3</ele>
        <time>2021-07-13T06:52:40Z</time>
      </trkpt>
      <trkpt lat="44.77946" lon="6.73107">
        <ele>1707.5</ele>
        <time>2021-07-13T06:53:11Z</time>
      </trkpt>
      <trkpt lat="44.77932" lon="6.73114">
        <ele>1707.4</ele>
        <time>2021-07-13T06:53:41Z</time>
      </trkpt>
      <trkpt lat="44.77905" lon="6.7313">
        <ele>1708.4</ele>
        <time>2021-07-13T06:54:12Z</time>
      </trkpt>
      <trkpt lat="44.77882" lon="6.73151">
        <ele>1710.5</ele>
        <time>2021-07-13T06:54:42Z</time>
      </trkpt>
      <trkpt lat="44.7787" lon="6.73151">
        <ele>1712.4</ele>
        <time>2021-07-13T06:55:12Z</time>
      </trkpt>
      <trkpt lat="44.77876" lon="6.7316">
        <ele>1715.8</ele>
        <time>2021-07-13T06:56:49Z</time>
      </trkpt>
      <trkpt lat="44.77868" lon="6.73152">
        <ele>1708.7</ele>
        <time>2021-07-13T07:01:25Z</time>
      </trkpt>
      <trkpt lat="44.77841" lon="6.73128">
        <ele>1711</ele>
        <time>2021-07-13T07:01:56Z</time>
      </trkpt>
      <trkpt lat="44.77809" lon="6.73129">
        <ele>1711</ele>
        <time>2021-07-13T07:02:26Z</time>
      </trkpt>
      <trkpt lat="44.77788" lon="6.73097">
        <ele>1709</ele>
        <time>2021-07-13T07:02:56Z</time>
      </trkpt>
      <trkpt lat="44.77755" lon="6.73089">
        <ele>1707.8</ele>
        <time>2021-07-13T07:03:27Z</time>
      </trkpt>
      <trkpt lat="44.77725" lon="6.73098">
        <ele>1707.2</ele>
        <time>2021-07-13T07:03:58Z</time>
      </trkpt>
      <trkpt lat="44.77689" lon="6.73087">
        <ele>1706.4</ele>
        <time>2021-07-13T07:04:29Z</time>
      </trkpt>
      <trkpt lat="44.7765" lon="6.7309">
        <ele>1706.1</ele>
        <time>2021-07-13T07:05:00Z</time>
      </trkpt>
      <trkpt lat="44.77616" lon="6.73077">
        <ele>1709.9</ele>
        <time>2021-07-13T07:05:30Z</time>
      </trkpt>
      <trkpt lat="44.77584" lon="6.73055">
        <ele>1708.3</ele>
        <time>2021-07-13T07:06:01Z</time>
      </trkpt>
      <trkpt lat="44.77548" lon="6.73047">
        <ele>1709.6</ele>
        <time>2021-07-13T07:06:32Z</time>
      </trkpt>
      <trkpt lat="44.77524" lon="6.73023">
        <ele>1709.9</ele>
        <time>2021-07-13T07:07:03Z</time>
      </trkpt>
      <trkpt lat="44.77516" lon="6.73016">
        <ele>1712.3</ele>
        <time>2021-07-13T07:07:41Z</time>
      </trkpt>
      <trkpt lat="44.77505" lon="6.72971">
        <ele>1713.4</ele>
        <time>2021-07-13T07:08:11Z</time>
      </trkpt>
      <trkpt lat="44.77496" lon="6.72926">
        <ele>1713.3</ele>
        <time>2021-07-13T07:08:42Z</time>
      </trkpt>
      <trkpt lat="44.7749" lon="6.72917">
        <ele>1711.6</ele>
        <time>2021-07-13T07:09:20Z</time>
      </trkpt>
      <trkpt lat="44.77489" lon="6.72881">
        <ele>1712.7</ele>
        <time>2021-07-13T07:09:51Z</time>
      </trkpt>
      <trkpt lat="44.77481" lon="6.72838">
        <ele>1714</ele>
        <time>2021-07-13T07:10:22Z</time>
      </trkpt>
      <trkpt lat="44.77472" lon="6.72798">
        <ele>1712.7</ele>
        <time>2021-07-13T07:10:53Z</time>
      </trkpt>
      <trkpt lat="44.77463" lon="6.72758">
        <ele>1716</ele>
        <time>2021-07-13T07:11:24Z</time>
      </trkpt>
      <trkpt lat="44.77447" lon="6.7271">
        <ele>1716.6</ele>
        <time>2021-07-13T07:11:55Z</time>
      </trkpt>
      <trkpt lat="44.77436" lon="6.72665">
        <ele>1716.9</ele>
        <time>2021-07-13T07:12:25Z</time>
      </trkpt>
      <trkpt lat="44.77424" lon="6.72628">
        <ele>1717.7</ele>
        <time>2021-07-13T07:12:55Z</time>
      </trkpt>
      <trkpt lat="44.77415" lon="6.72586">
        <ele>1721.9</ele>
        <time>2021-07-13T07:13:25Z</time>
      </trkpt>
      <trkpt lat="44.77415" lon="6.72545">
        <ele>1721.9</ele>
        <time>2021-07-13T07:13:56Z</time>
      </trkpt>
      <trkpt lat="44.77413" lon="6.72504">
        <ele>1722.4</ele>
        <time>2021-07-13T07:14:27Z</time>
      </trkpt>
      <trkpt lat="44.77398" lon="6.72459">
        <ele>1723.4</ele>
        <time>2021-07-13T07:14:58Z</time>
      </trkpt>
      <trkpt lat="44.77387" lon="6.72414">
        <ele>1726.9</ele>
        <time>2021-07-13T07:15:29Z</time>
      </trkpt>
      <trkpt lat="44.77391" lon="6.72378">
        <ele>1723.6</ele>
        <time>2021-07-13T07:15:59Z</time>
      </trkpt>
      <trkpt lat="44.774" lon="6.72332">
        <ele>1730.3</ele>
        <time>2021-07-13T07:16:30Z</time>
      </trkpt>
      <trkpt lat="44.77377" lon="6.72309">
        <ele>1726.7</ele>
        <time>2021-07-13T07:17:01Z</time>
      </trkpt>
      <trkpt lat="44.77358" lon="6.72286">
        <ele>1728.9</ele>
        <time>2021-07-13T07:17:31Z</time>
      </trkpt>
      <trkpt lat="44.77337" lon="6.72243">
        <ele>1731.3</ele>
        <time>2021-07-13T07:18:01Z</time>
      </trkpt>
      <trkpt lat="44.77313" lon="6.72214">
        <ele>1726.8</ele>
        <time>2021-07-13T07:18:32Z</time>
      </trkpt>
      <trkpt lat="44.77299" lon="6.72189">
        <ele>1733.3</ele>
        <time>2021-07-13T07:19:03Z</time>
      </trkpt>
      <trkpt lat="44.77282" lon="6.72178">
        <ele>1730.2</ele>
        <time>2021-07-13T07:19:33Z</time>
      </trkpt>
      <trkpt lat="44.77262" lon="6.72154">
        <ele>1723.2</ele>
        <time>2021-07-13T07:20:04Z</time>
      </trkpt>
      <trkpt lat="44.77247" lon="6.72135">
        <ele>1724.6</ele>
        <time>2021-07-13T07:20:34Z</time>
      </trkpt>
      <trkpt lat="44.77249" lon="6.72147">
        <ele>1723.1</ele>
        <time>2021-07-13T07:21:09Z</time>
      </trkpt>
      <trkpt lat="44.77257" lon="6.72139">
        <ele>1727</ele>
        <time>2021-07-13T07:23:57Z</time>
      </trkpt>
      <trkpt lat="44.7725" lon="6.72131">
        <ele>1718.5</ele>
        <time>2021-07-13T07:28:39Z</time>
      </trkpt>
      <trkpt lat="44.77247" lon="6.72101">
        <ele>1718.5</ele>
        <time>2021-07-13T07:29:10Z</time>
      </trkpt>
      <trkpt lat="44.77234" lon="6.72074">
        <ele>1717.7</ele>
        <time>2021-07-13T07:29:41Z</time>
      </trkpt>
      <trkpt lat="44.77231" lon="6.7205">
        <ele>1718.7</ele>
        <time>2021-07-13T07:30:11Z</time>
      </trkpt>
      <trkpt lat="44.77226" lon="6.72018">
        <ele>1720</ele>
        <time>2021-07-13T07:30:42Z</time>
      </trkpt>
      <trkpt lat="44.77214" lon="6.71993">
        <ele>1720.4</ele>
        <time>2021-07-13T07:31:12Z</time>
      </trkpt>
      <trkpt lat="44.77209" lon="6.71959">
        <ele>1724.1</ele>
        <time>2021-07-13T07:31:42Z</time>
      </trkpt>
      <trkpt lat="44.772" lon="6.71982">
        <ele>1724</ele>
        <time>2021-07-13T07:32:12Z</time>
      </trkpt>
      <trkpt lat="44.77211" lon="6.72006">
        <ele>1727.8</ele>
        <time>2021-07-13T07:32:43Z</time>
      </trkpt>
      <trkpt lat="44.77212" lon="6.72028">
        <ele>1729.8</ele>
        <time>2021-07-13T07:33:14Z</time>
      </trkpt>
      <trkpt lat="44.77198" lon="6.7205">
        <ele>1734</ele>
        <time>2021-07-13T07:33:44Z</time>
      </trkpt>
      <trkpt lat="44.77185" lon="6.72032">
        <ele>1733.3</ele>
        <time>2021-07-13T07:34:15Z</time>
      </trkpt>
      <trkpt lat="44.77167" lon="6.72022">
        <ele>1737.4</ele>
        <time>2021-07-13T07:34:46Z</time>
      </trkpt>
      <trkpt lat="44.77153" lon="6.71997">
        <ele>1742.9</ele>
        <time>2021-07-13T07:35:17Z</time>
      </trkpt>
      <trkpt lat="44.7715" lon="6.71972">
        <ele>1749.3</ele>
        <time>2021-07-13T07:35:48Z</time>
      </trkpt>
      <trkpt lat="44.77147" lon="6.71945">
        <ele>1758.3</ele>
        <time>2021-07-13T07:36:18Z</time>
      </trkpt>
      <trkpt lat="44.7714" lon="6.71926">
        <ele>1763.1</ele>
        <time>2021-07-13T07:36:48Z</time>
      </trkpt>
      <trkpt lat="44.77123" lon="6.71911">
        <ele>1767.2</ele>
        <time>2021-07-13T07:37:19Z</time>
      </trkpt>
      <trkpt lat="44.77105" lon="6.71908">
        <ele>1771.8</ele>
        <time>2021-07-13T07:37:49Z</time>
      </trkpt>
      <trkpt lat="44.77114" lon="6.71914">
        <ele>1777.3</ele>
        <time>2021-07-13T07:38:32Z</time>
      </trkpt>
      <trkpt lat="44.77112" lon="6.71938">
        <ele>1780.2</ele>
        <time>2021-07-13T07:39:03Z</time>
      </trkpt>
      <trkpt lat="44.77093" lon="6.7196">
        <ele>1780.2</ele>
        <time>2021-07-13T07:39:33Z</time>
      </trkpt>
      <trkpt lat="44.77093" lon="6.7199">
        <ele>1782</ele>
        <time>2021-07-13T07:40:04Z</time>
      </trkpt>
      <trkpt lat="44.77097" lon="6.72011">
        <ele>1787</ele>
        <time>2021-07-13T07:40:34Z</time>
      </trkpt>
      <trkpt lat="44.77113" lon="6.72032">
        <ele>1796</ele>
        <time>2021-07-13T07:41:05Z</time>
      </trkpt>
      <trkpt lat="44.77096" lon="6.72046">
        <ele>1796.6</ele>
        <time>2021-07-13T07:41:36Z</time>
      </trkpt>
      <trkpt lat="44.77073" lon="6.72023">
        <ele>1799.9</ele>
        <time>2021-07-13T07:42:06Z</time>
      </trkpt>
      <trkpt lat="44.77062" lon="6.72006">
        <ele>1805.1</ele>
        <time>2021-07-13T07:42:37Z</time>
      </trkpt>
      <trkpt lat="44.77072" lon="6.72032">
        <ele>1809.2</ele>
        <time>2021-07-13T07:43:07Z</time>
      </trkpt>
      <trkpt lat="44.77081" lon="6.72053">
        <ele>1812.2</ele>
        <time>2021-07-13T07:43:38Z</time>
      </trkpt>
      <trkpt lat="44.77091" lon="6.72082">
        <ele>1817.4</ele>
        <time>2021-07-13T07:44:09Z</time>
      </trkpt>
      <trkpt lat="44.77097" lon="6.72102">
        <ele>1819.5</ele>
        <time>2021-07-13T07:44:39Z</time>
      </trkpt>
      <trkpt lat="44.77098" lon="6.7213">
        <ele>1822</ele>
        <time>2021-07-13T07:45:10Z</time>
      </trkpt>
      <trkpt lat="44.7709" lon="6.72159">
        <ele>1823.7</ele>
        <time>2021-07-13T07:45:41Z</time>
      </trkpt>
      <trkpt lat="44.77087" lon="6.72183">
        <ele>1824.4</ele>
        <time>2021-07-13T07:46:12Z</time>
      </trkpt>
      <trkpt lat="44.77089" lon="6.72218">
        <ele>1827.6</ele>
        <time>2021-07-13T07:46:43Z</time>
      </trkpt>
      <trkpt lat="44.77097" lon="6.72243">
        <ele>1834.1</ele>
        <time>2021-07-13T07:47:14Z</time>
      </trkpt>
      <trkpt lat="44.77102" lon="6.72266">
        <ele>1842.9</ele>
        <time>2021-07-13T07:47:44Z</time>
      </trkpt>
      <trkpt lat="44.77102" lon="6.72301">
        <ele>1849.7</ele>
        <time>2021-07-13T07:48:15Z</time>
      </trkpt>
      <trkpt lat="44.77094" lon="6.7233">
        <ele>1857.1</ele>
        <time>2021-07-13T07:48:45Z</time>
      </trkpt>
      <trkpt lat="44.77082" lon="6.72347">
        <ele>1859.9</ele>
        <time>2021-07-13T07:49:16Z</time>
      </trkpt>
      <trkpt lat="44.77071" lon="6.72374">
        <ele>1862.3</ele>
        <time>2021-07-13T07:49:47Z</time>
      </trkpt>
      <trkpt lat="44.77065" lon="6.72354">
        <ele>1869.8</ele>
        <time>2021-07-13T07:50:18Z</time>
      </trkpt>
      <trkpt lat="44.77054" lon="6.72363">
        <ele>1871.1</ele>
        <time>2021-07-13T07:50:49Z</time>
      </trkpt>
      <trkpt lat="44.77042" lon="6.72386">
        <ele>1877.4</ele>
        <time>2021-07-13T07:51:20Z</time>
      </trkpt>
      <trkpt lat="44.77029" lon="6.72412">
        <ele>1881.3</ele>
        <time>2021-07-13T07:51:51Z</time>
      </trkpt>
      <trkpt lat="44.77029" lon="6.72445">
        <ele>1883.2</ele>
        <time>2021-07-13T07:52:22Z</time>
      </trkpt>
      <trkpt lat="44.77022" lon="6.72476">
        <ele>1887</ele>
        <time>2021-07-13T07:52:53Z</time>
      </trkpt>
      <trkpt lat="44.77002" lon="6.72509">
        <ele>1890.2</ele>
        <time>2021-07-13T07:53:24Z</time>
      </trkpt>
      <trkpt lat="44.76981" lon="6.72517">
        <ele>1892.5</ele>
        <time>2021-07-13T07:53:55Z</time>
      </trkpt>
      <trkpt lat="44.76958" lon="6.72515">
        <ele>1895.7</ele>
        <time>2021-07-13T07:54:26Z</time>
      </trkpt>
      <trkpt lat="44.76945" lon="6.72485">
        <ele>1893.1</ele>
        <time>2021-07-13T07:54:57Z</time>
      </trkpt>
      <trkpt lat="44.76941" lon="6.72449">
        <ele>1890.6</ele>
        <time>2021-07-13T07:55:28Z</time>
      </trkpt>
      <trkpt lat="44.76935" lon="6.72435">
        <ele>1889.9</ele>
        <time>2021-07-13T07:55:59Z</time>
      </trkpt>
      <trkpt lat="44.76928" lon="6.72406">
        <ele>1886.2</ele>
        <time>2021-07-13T07:56:30Z</time>
      </trkpt>
      <trkpt lat="44.76921" lon="6.72381">
        <ele>1884.5</ele>
        <time>2021-07-13T07:57:01Z</time>
      </trkpt>
      <trkpt lat="44.76894" lon="6.72344">
        <ele>1880.3</ele>
        <time>2021-07-13T07:57:32Z</time>
      </trkpt>
      <trkpt lat="44.76877" lon="6.72325">
        <ele>1875.6</ele>
        <time>2021-07-13T07:58:02Z</time>
      </trkpt>
      <trkpt lat="44.76859" lon="6.7233">
        <ele>1871</ele>
        <time>2021-07-13T07:58:33Z</time>
      </trkpt>
      <trkpt lat="44.76836" lon="6.72324">
        <ele>1866.2</ele>
        <time>2021-07-13T07:59:04Z</time>
      </trkpt>
      <trkpt lat="44.76822" lon="6.72318">
        <ele>1861.2</ele>
        <time>2021-07-13T07:59:35Z</time>
      </trkpt>
      <trkpt lat="44.76809" lon="6.72316">
        <ele>1857.4</ele>
        <time>2021-07-13T08:00:06Z</time>
      </trkpt>
      <trkpt lat="44.76788" lon="6.72288">
        <ele>1846.5</ele>
        <time>2021-07-13T08:00:37Z</time>
      </trkpt>
      <trkpt lat="44.7678" lon="6.7227">
        <ele>1839.1</ele>
        <time>2021-07-13T08:01:07Z</time>
      </trkpt>
      <trkpt lat="44.7676" lon="6.72266">
        <ele>1839.5</ele>
        <time>2021-07-13T08:01:38Z</time>
      </trkpt>
      <trkpt lat="44.76753" lon="6.72258">
        <ele>1839.7</ele>
        <time>2021-07-13T08:02:16Z</time>
      </trkpt>
      <trkpt lat="44.76728" lon="6.72237">
        <ele>1835.5</ele>
        <time>2021-07-13T08:02:47Z</time>
      </trkpt>
      <trkpt lat="44.76706" lon="6.72242">
        <ele>1832.2</ele>
        <time>2021-07-13T08:03:18Z</time>
      </trkpt>
      <trkpt lat="44.76692" lon="6.72227">
        <ele>1830.5</ele>
        <time>2021-07-13T08:03:48Z</time>
      </trkpt>
      <trkpt lat="44.76684" lon="6.72232">
        <ele>1826.3</ele>
        <time>2021-07-13T08:04:35Z</time>
      </trkpt>
      <trkpt lat="44.76672" lon="6.72233">
        <ele>1820.3</ele>
        <time>2021-07-13T08:05:06Z</time>
      </trkpt>
      <trkpt lat="44.76661" lon="6.72223">
        <ele>1809.3</ele>
        <time>2021-07-13T08:05:36Z</time>
      </trkpt>
      <trkpt lat="44.76647" lon="6.72221">
        <ele>1800.7</ele>
        <time>2021-07-13T08:06:06Z</time>
      </trkpt>
      <trkpt lat="44.76633" lon="6.72207">
        <ele>1796.1</ele>
        <time>2021-07-13T08:06:37Z</time>
      </trkpt>
      <trkpt lat="44.76621" lon="6.72204">
        <ele>1794</ele>
        <time>2021-07-13T08:07:07Z</time>
      </trkpt>
      <trkpt lat="44.76613" lon="6.72199">
        <ele>1793.3</ele>
        <time>2021-07-13T08:08:13Z</time>
      </trkpt>
      <trkpt lat="44.7659" lon="6.72179">
        <ele>1786.1</ele>
        <time>2021-07-13T08:08:44Z</time>
      </trkpt>
      <trkpt lat="44.76572" lon="6.72157">
        <ele>1780.5</ele>
        <time>2021-07-13T08:09:14Z</time>
      </trkpt>
      <trkpt lat="44.76557" lon="6.72128">
        <ele>1776.4</ele>
        <time>2021-07-13T08:09:45Z</time>
      </trkpt>
      <trkpt lat="44.76543" lon="6.72111">
        <ele>1773.9</ele>
        <time>2021-07-13T08:10:16Z</time>
      </trkpt>
      <trkpt lat="44.76538" lon="6.72093">
        <ele>1770.2</ele>
        <time>2021-07-13T08:10:46Z</time>
      </trkpt>
      <trkpt lat="44.76529" lon="6.72067">
        <ele>1765.9</ele>
        <time>2021-07-13T08:11:16Z</time>
      </trkpt>
      <trkpt lat="44.76509" lon="6.72046">
        <ele>1767.1</ele>
        <time>2021-07-13T08:11:47Z</time>
      </trkpt>
      <trkpt lat="44.76491" lon="6.72021">
        <ele>1761.9</ele>
        <time>2021-07-13T08:12:18Z</time>
      </trkpt>
      <trkpt lat="44.76477" lon="6.71987">
        <ele>1757.7</ele>
        <time>2021-07-13T08:12:49Z</time>
      </trkpt>
      <trkpt lat="44.7646" lon="6.71976">
        <ele>1758.4</ele>
        <time>2021-07-13T08:13:19Z</time>
      </trkpt>
      <trkpt lat="44.76436" lon="6.71969">
        <ele>1758.8</ele>
        <time>2021-07-13T08:13:50Z</time>
      </trkpt>
      <trkpt lat="44.76426" lon="6.7196">
        <ele>1757.8</ele>
        <time>2021-07-13T08:14:21Z</time>
      </trkpt>
      <trkpt lat="44.76417" lon="6.71955">
        <ele>1765.5</ele>
        <time>2021-07-13T08:16:05Z</time>
      </trkpt>
      <trkpt lat="44.76398" lon="6.71934">
        <ele>1767.9</ele>
        <time>2021-07-13T08:16:36Z</time>
      </trkpt>
      <trkpt lat="44.7639" lon="6.71926">
        <ele>1768.3</ele>
        <time>2021-07-13T08:17:06Z</time>
      </trkpt>
      <trkpt lat="44.76375" lon="6.71895">
        <ele>1764.6</ele>
        <time>2021-07-13T08:17:37Z</time>
      </trkpt>
      <trkpt lat="44.76357" lon="6.71871">
        <ele>1760.9</ele>
        <time>2021-07-13T08:18:07Z</time>
      </trkpt>
      <trkpt lat="44.76333" lon="6.71855">
        <ele>1757.8</ele>
        <time>2021-07-13T08:18:38Z</time>
      </trkpt>
      <trkpt lat="44.76318" lon="6.71821">
        <ele>1755.3</ele>
        <time>2021-07-13T08:19:08Z</time>
      </trkpt>
      <trkpt lat="44.76312" lon="6.71786">
        <ele>1752.5</ele>
        <time>2021-07-13T08:19:38Z</time>
      </trkpt>
      <trkpt lat="44.76295" lon="6.7176">
        <ele>1751.7</ele>
        <time>2021-07-13T08:20:09Z</time>
      </trkpt>
      <trkpt lat="44.76281" lon="6.71724">
        <ele>1751.7</ele>
        <time>2021-07-13T08:20:40Z</time>
      </trkpt>
      <trkpt lat="44.76265" lon="6.71705">
        <ele>1752.6</ele>
        <time>2021-07-13T08:21:10Z</time>
      </trkpt>
      <trkpt lat="44.76249" lon="6.71689">
        <ele>1754.6</ele>
        <time>2021-07-13T08:21:40Z</time>
      </trkpt>
      <trkpt lat="44.76235" lon="6.71676">
        <ele>1758.9</ele>
        <time>2021-07-13T08:22:11Z</time>
      </trkpt>
      <trkpt lat="44.76228" lon="6.71657">
        <ele>1768.6</ele>
        <time>2021-07-13T08:22:41Z</time>
      </trkpt>
      <trkpt lat="44.76233" lon="6.71636">
        <ele>1776</ele>
        <time>2021-07-13T08:23:11Z</time>
      </trkpt>
      <trkpt lat="44.76225" lon="6.71614">
        <ele>1781.8</ele>
        <time>2021-07-13T08:23:42Z</time>
      </trkpt>
      <trkpt lat="44.76215" lon="6.71606">
        <ele>1788.2</ele>
        <time>2021-07-13T08:24:13Z</time>
      </trkpt>
      <trkpt lat="44.76197" lon="6.71606">
        <ele>1791.2</ele>
        <time>2021-07-13T08:24:43Z</time>
      </trkpt>
      <trkpt lat="44.76184" lon="6.71593">
        <ele>1793.3</ele>
        <time>2021-07-13T08:25:14Z</time>
      </trkpt>
      <trkpt lat="44.76192" lon="6.71588">
        <ele>1792.8</ele>
        <time>2021-07-13T08:27:41Z</time>
      </trkpt>
      <trkpt lat="44.76185" lon="6.7158">
        <ele>1791.4</ele>
        <time>2021-07-13T08:31:00Z</time>
      </trkpt>
      <trkpt lat="44.76191" lon="6.7159">
        <ele>1791.5</ele>
        <time>2021-07-13T08:32:12Z</time>
      </trkpt>
      <trkpt lat="44.76184" lon="6.71581">
        <ele>1785.7</ele>
        <time>2021-07-13T08:34:51Z</time>
      </trkpt>
      <trkpt lat="44.76169" lon="6.71561">
        <ele>1785.1</ele>
        <time>2021-07-13T08:35:21Z</time>
      </trkpt>
      <trkpt lat="44.76167" lon="6.71529">
        <ele>1782.8</ele>
        <time>2021-07-13T08:35:52Z</time>
      </trkpt>
      <trkpt lat="44.76166" lon="6.715">
        <ele>1783.9</ele>
        <time>2021-07-13T08:36:22Z</time>
      </trkpt>
      <trkpt lat="44.7615" lon="6.71501">
        <ele>1786.8</ele>
        <time>2021-07-13T08:36:53Z</time>
      </trkpt>
      <trkpt lat="44.76145" lon="6.71474">
        <ele>1790</ele>
        <time>2021-07-13T08:37:23Z</time>
      </trkpt>
      <trkpt lat="44.76122" lon="6.71459">
        <ele>1794.3</ele>
        <time>2021-07-13T08:37:54Z</time>
      </trkpt>
      <trkpt lat="44.761" lon="6.71476">
        <ele>1800</ele>
        <time>2021-07-13T08:38:24Z</time>
      </trkpt>
      <trkpt lat="44.7608" lon="6.71492">
        <ele>1808.2</ele>
        <time>2021-07-13T08:38:55Z</time>
      </trkpt>
      <trkpt lat="44.76062" lon="6.7149">
        <ele>1812.9</ele>
        <time>2021-07-13T08:39:25Z</time>
      </trkpt>
      <trkpt lat="44.76037" lon="6.71488">
        <ele>1814.2</ele>
        <time>2021-07-13T08:39:55Z</time>
      </trkpt>
      <trkpt lat="44.76027" lon="6.71491">
        <ele>1818</ele>
        <time>2021-07-13T08:40:26Z</time>
      </trkpt>
      <trkpt lat="44.76013" lon="6.71502">
        <ele>1820.6</ele>
        <time>2021-07-13T08:40:57Z</time>
      </trkpt>
      <trkpt lat="44.75993" lon="6.71526">
        <ele>1828.2</ele>
        <time>2021-07-13T08:41:28Z</time>
      </trkpt>
      <trkpt lat="44.75979" lon="6.71549">
        <ele>1839</ele>
        <time>2021-07-13T08:41:58Z</time>
      </trkpt>
      <trkpt lat="44.75947" lon="6.71555">
        <ele>1841.6</ele>
        <time>2021-07-13T08:42:29Z</time>
      </trkpt>
      <trkpt lat="44.75929" lon="6.71563">
        <ele>1847.8</ele>
        <time>2021-07-13T08:42:59Z</time>
      </trkpt>
      <trkpt lat="44.7595" lon="6.7154">
        <ele>1851.9</ele>
        <time>2021-07-13T08:43:30Z</time>
      </trkpt>
      <trkpt lat="44.7597" lon="6.71519">
        <ele>1853.6</ele>
        <time>2021-07-13T08:44:01Z</time>
      </trkpt>
      <trkpt lat="44.75976" lon="6.7149">
        <ele>1855.8</ele>
        <time>2021-07-13T08:44:31Z</time>
      </trkpt>
      <trkpt lat="44.75988" lon="6.71463">
        <ele>1859.2</ele>
        <time>2021-07-13T08:45:01Z</time>
      </trkpt>
      <trkpt lat="44.75995" lon="6.71446">
        <ele>1860.2</ele>
        <time>2021-07-13T08:45:32Z</time>
      </trkpt>
      <trkpt lat="44.76011" lon="6.71432">
        <ele>1860.9</ele>
        <time>2021-07-13T08:46:03Z</time>
      </trkpt>
      <trkpt lat="44.76013" lon="6.71415">
        <ele>1859.5</ele>
        <time>2021-07-13T08:46:34Z</time>
      </trkpt>
      <trkpt lat="44.76031" lon="6.71405">
        <ele>1862.9</ele>
        <time>2021-07-13T08:47:05Z</time>
      </trkpt>
      <trkpt lat="44.76027" lon="6.71391">
        <ele>1865.6</ele>
        <time>2021-07-13T08:47:35Z</time>
      </trkpt>
      <trkpt lat="44.76006" lon="6.71379">
        <ele>1868.8</ele>
        <time>2021-07-13T08:48:06Z</time>
      </trkpt>
      <trkpt lat="44.75983" lon="6.71364">
        <ele>1869</ele>
        <time>2021-07-13T08:48:37Z</time>
      </trkpt>
      <trkpt lat="44.75971" lon="6.71338">
        <ele>1869.3</ele>
        <time>2021-07-13T08:49:08Z</time>
      </trkpt>
      <trkpt lat="44.75947" lon="6.71321">
        <ele>1872.2</ele>
        <time>2021-07-13T08:49:39Z</time>
      </trkpt>
      <trkpt lat="44.75932" lon="6.71295">
        <ele>1873.5</ele>
        <time>2021-07-13T08:50:09Z</time>
      </trkpt>
      <trkpt lat="44.7591" lon="6.71292">
        <ele>1876.9</ele>
        <time>2021-07-13T08:50:39Z</time>
      </trkpt>
      <trkpt lat="44.75889" lon="6.71287">
        <ele>1879.3</ele>
        <time>2021-07-13T08:51:10Z</time>
      </trkpt>
      <trkpt lat="44.75878" lon="6.71297">
        <ele>1882.1</ele>
        <time>2021-07-13T08:51:40Z</time>
      </trkpt>
      <trkpt lat="44.75867" lon="6.71288">
        <ele>1887</ele>
        <time>2021-07-13T08:52:19Z</time>
      </trkpt>
      <trkpt lat="44.75844" lon="6.71277">
        <ele>1888.5</ele>
        <time>2021-07-13T08:52:50Z</time>
      </trkpt>
      <trkpt lat="44.7583" lon="6.71266">
        <ele>1899.2</ele>
        <time>2021-07-13T08:53:20Z</time>
      </trkpt>
      <trkpt lat="44.75835" lon="6.71289">
        <ele>1904.2</ele>
        <time>2021-07-13T08:53:51Z</time>
      </trkpt>
      <trkpt lat="44.75822" lon="6.71294">
        <ele>1906.3</ele>
        <time>2021-07-13T08:54:21Z</time>
      </trkpt>
      <trkpt lat="44.75809" lon="6.71289">
        <ele>1909.2</ele>
        <time>2021-07-13T08:54:52Z</time>
      </trkpt>
      <trkpt lat="44.75791" lon="6.71274">
        <ele>1913.2</ele>
        <time>2021-07-13T08:55:23Z</time>
      </trkpt>
      <trkpt lat="44.75779" lon="6.71285">
        <ele>1916.4</ele>
        <time>2021-07-13T08:55:54Z</time>
      </trkpt>
      <trkpt lat="44.75759" lon="6.71275">
        <ele>1917.4</ele>
        <time>2021-07-13T08:56:25Z</time>
      </trkpt>
      <trkpt lat="44.75735" lon="6.71264">
        <ele>1917.8</ele>
        <time>2021-07-13T08:56:55Z</time>
      </trkpt>
      <trkpt lat="44.75706" lon="6.7125">
        <ele>1917.5</ele>
        <time>2021-07-13T08:57:26Z</time>
      </trkpt>
      <trkpt lat="44.7568" lon="6.71237">
        <ele>1916.8</ele>
        <time>2021-07-13T08:57:57Z</time>
      </trkpt>
      <trkpt lat="44.7566" lon="6.7123">
        <ele>1917.9</ele>
        <time>2021-07-13T08:58:27Z</time>
      </trkpt>
      <trkpt lat="44.75635" lon="6.71236">
        <ele>1920.2</ele>
        <time>2021-07-13T08:58:58Z</time>
      </trkpt>
      <trkpt lat="44.75608" lon="6.71223">
        <ele>1923.8</ele>
        <time>2021-07-13T08:59:28Z</time>
      </trkpt>
      <trkpt lat="44.75606" lon="6.71242">
        <ele>1930.7</ele>
        <time>2021-07-13T08:59:59Z</time>
      </trkpt>
      <trkpt lat="44.75597" lon="6.71257">
        <ele>1935.7</ele>
        <time>2021-07-13T09:00:30Z</time>
      </trkpt>
      <trkpt lat="44.7557" lon="6.71244">
        <ele>1938.5</ele>
        <time>2021-07-13T09:01:01Z</time>
      </trkpt>
      <trkpt lat="44.75551" lon="6.71234">
        <ele>1941.6</ele>
        <time>2021-07-13T09:01:31Z</time>
      </trkpt>
      <trkpt lat="44.75552" lon="6.71265">
        <ele>1951</ele>
        <time>2021-07-13T09:02:02Z</time>
      </trkpt>
      <trkpt lat="44.75541" lon="6.71289">
        <ele>1955.3</ele>
        <time>2021-07-13T09:02:32Z</time>
      </trkpt>
      <trkpt lat="44.75524" lon="6.71277">
        <ele>1963.6</ele>
        <time>2021-07-13T09:03:02Z</time>
      </trkpt>
      <trkpt lat="44.75491" lon="6.71276">
        <ele>1966.2</ele>
        <time>2021-07-13T09:03:33Z</time>
      </trkpt>
      <trkpt lat="44.7546" lon="6.71281">
        <ele>1969.8</ele>
        <time>2021-07-13T09:04:04Z</time>
      </trkpt>
      <trkpt lat="44.75457" lon="6.71305">
        <ele>1975.1</ele>
        <time>2021-07-13T09:04:34Z</time>
      </trkpt>
      <trkpt lat="44.75479" lon="6.71328">
        <ele>1979.9</ele>
        <time>2021-07-13T09:05:05Z</time>
      </trkpt>
      <trkpt lat="44.75459" lon="6.71347">
        <ele>1982.4</ele>
        <time>2021-07-13T09:05:36Z</time>
      </trkpt>
      <trkpt lat="44.7544" lon="6.7137">
        <ele>1984.1</ele>
        <time>2021-07-13T09:06:07Z</time>
      </trkpt>
      <trkpt lat="44.75423" lon="6.71379">
        <ele>1984.7</ele>
        <time>2021-07-13T09:06:37Z</time>
      </trkpt>
      <trkpt lat="44.75398" lon="6.71389">
        <ele>1986.6</ele>
        <time>2021-07-13T09:07:08Z</time>
      </trkpt>
      <trkpt lat="44.75372" lon="6.714">
        <ele>1987.8</ele>
        <time>2021-07-13T09:07:39Z</time>
      </trkpt>
      <trkpt lat="44.75347" lon="6.71404">
        <ele>1990.5</ele>
        <time>2021-07-13T09:08:10Z</time>
      </trkpt>
      <trkpt lat="44.75326" lon="6.714">
        <ele>1993.1</ele>
        <time>2021-07-13T09:08:40Z</time>
      </trkpt>
      <trkpt lat="44.75302" lon="6.71396">
        <ele>1995.2</ele>
        <time>2021-07-13T09:09:10Z</time>
      </trkpt>
      <trkpt lat="44.75281" lon="6.71395">
        <ele>1996.4</ele>
        <time>2021-07-13T09:09:41Z</time>
      </trkpt>
      <trkpt lat="44.75256" lon="6.71384">
        <ele>2004.1</ele>
        <time>2021-07-13T09:10:12Z</time>
      </trkpt>
      <trkpt lat="44.75238" lon="6.71377">
        <ele>2005.3</ele>
        <time>2021-07-13T09:10:42Z</time>
      </trkpt>
      <trkpt lat="44.75219" lon="6.71371">
        <ele>2007.3</ele>
        <time>2021-07-13T09:11:13Z</time>
      </trkpt>
      <trkpt lat="44.75206" lon="6.71364">
        <ele>2008.7</ele>
        <time>2021-07-13T09:11:44Z</time>
      </trkpt>
      <trkpt lat="44.75196" lon="6.71361">
        <ele>2009.4</ele>
        <time>2021-07-13T09:12:14Z</time>
      </trkpt>
      <trkpt lat="44.75178" lon="6.71353">
        <ele>2009.9</ele>
        <time>2021-07-13T09:12:44Z</time>
      </trkpt>
      <trkpt lat="44.75159" lon="6.71347">
        <ele>2011.8</ele>
        <time>2021-07-13T09:13:15Z</time>
      </trkpt>
      <trkpt lat="44.75169" lon="6.71335">
        <ele>2013.8</ele>
        <time>2021-07-13T09:13:45Z</time>
      </trkpt>
      <trkpt lat="44.75153" lon="6.71326">
        <ele>2020.1</ele>
        <time>2021-07-13T09:14:16Z</time>
      </trkpt>
      <trkpt lat="44.75136" lon="6.7133">
        <ele>2025.1</ele>
        <time>2021-07-13T09:14:47Z</time>
      </trkpt>
      <trkpt lat="44.75119" lon="6.71339">
        <ele>2033.7</ele>
        <time>2021-07-13T09:15:17Z</time>
      </trkpt>
      <trkpt lat="44.7511" lon="6.71317">
        <ele>2041.5</ele>
        <time>2021-07-13T09:15:48Z</time>
      </trkpt>
      <trkpt lat="44.75093" lon="6.71305">
        <ele>2048.7</ele>
        <time>2021-07-13T09:16:18Z</time>
      </trkpt>
      <trkpt lat="44.75075" lon="6.71291">
        <ele>2055.3</ele>
        <time>2021-07-13T09:16:49Z</time>
      </trkpt>
      <trkpt lat="44.75056" lon="6.71282">
        <ele>2058.5</ele>
        <time>2021-07-13T09:17:20Z</time>
      </trkpt>
      <trkpt lat="44.75037" lon="6.71292">
        <ele>2063.5</ele>
        <time>2021-07-13T09:17:51Z</time>
      </trkpt>
      <trkpt lat="44.75019" lon="6.71299">
        <ele>2066.8</ele>
        <time>2021-07-13T09:18:22Z</time>
      </trkpt>
      <trkpt lat="44.75002" lon="6.71313">
        <ele>2073</ele>
        <time>2021-07-13T09:18:52Z</time>
      </trkpt>
      <trkpt lat="44.74986" lon="6.71326">
        <ele>2075.6</ele>
        <time>2021-07-13T09:19:23Z</time>
      </trkpt>
      <trkpt lat="44.74971" lon="6.71349">
        <ele>2080</ele>
        <time>2021-07-13T09:19:54Z</time>
      </trkpt>
      <trkpt lat="44.74951" lon="6.71369">
        <ele>2084.9</ele>
        <time>2021-07-13T09:20:25Z</time>
      </trkpt>
      <trkpt lat="44.74933" lon="6.71378">
        <ele>2088.9</ele>
        <time>2021-07-13T09:20:55Z</time>
      </trkpt>
      <trkpt lat="44.74906" lon="6.71365">
        <ele>2088.1</ele>
        <time>2021-07-13T09:21:26Z</time>
      </trkpt>
      <trkpt lat="44.74878" lon="6.71363">
        <ele>2090.4</ele>
        <time>2021-07-13T09:21:57Z</time>
      </trkpt>
      <trkpt lat="44.74854" lon="6.71348">
        <ele>2091.1</ele>
        <time>2021-07-13T09:22:28Z</time>
      </trkpt>
      <trkpt lat="44.7483" lon="6.7133">
        <ele>2092.8</ele>
        <time>2021-07-13T09:22:59Z</time>
      </trkpt>
      <trkpt lat="44.74805" lon="6.71321">
        <ele>2096.3</ele>
        <time>2021-07-13T09:23:30Z</time>
      </trkpt>
      <trkpt lat="44.74797" lon="6.71314">
        <ele>2099.6</ele>
        <time>2021-07-13T09:24:23Z</time>
      </trkpt>
      <trkpt lat="44.74774" lon="6.71278">
        <ele>2098.8</ele>
        <time>2021-07-13T09:24:54Z</time>
      </trkpt>
      <trkpt lat="44.74748" lon="6.71257">
        <ele>2100.1</ele>
        <time>2021-07-13T09:25:24Z</time>
      </trkpt>
      <trkpt lat="44.74717" lon="6.71258">
        <ele>2100.2</ele>
        <time>2021-07-13T09:25:54Z</time>
      </trkpt>
      <trkpt lat="44.74708" lon="6.71259">
        <ele>2106.1</ele>
        <time>2021-07-13T09:28:20Z</time>
      </trkpt>
      <trkpt lat="44.74706" lon="6.71272">
        <ele>2106.6</ele>
        <time>2021-07-13T09:29:30Z</time>
      </trkpt>
      <trkpt lat="44.74704" lon="6.71286">
        <ele>2107.5</ele>
        <time>2021-07-13T09:30:01Z</time>
      </trkpt>
      <trkpt lat="44.74705" lon="6.71269">
        <ele>2106.7</ele>
        <time>2021-07-13T09:30:32Z</time>
      </trkpt>
      <trkpt lat="44.7471" lon="6.71258">
        <ele>2108.5</ele>
        <time>2021-07-13T09:32:52Z</time>
      </trkpt>
      <trkpt lat="44.74703" lon="6.71267">
        <ele>2106.9</ele>
        <time>2021-07-13T09:33:53Z</time>
      </trkpt>
      <trkpt lat="44.74679" lon="6.71265">
        <ele>2108.9</ele>
        <time>2021-07-13T09:34:24Z</time>
      </trkpt>
      <trkpt lat="44.74657" lon="6.7126">
        <ele>2110.2</ele>
        <time>2021-07-13T09:34:54Z</time>
      </trkpt>
      <trkpt lat="44.74633" lon="6.71252">
        <ele>2113.6</ele>
        <time>2021-07-13T09:35:25Z</time>
      </trkpt>
      <trkpt lat="44.74613" lon="6.71261">
        <ele>2116.3</ele>
        <time>2021-07-13T09:35:56Z</time>
      </trkpt>
      <trkpt lat="44.74593" lon="6.71266">
        <ele>2122.7</ele>
        <time>2021-07-13T09:36:27Z</time>
      </trkpt>
      <trkpt lat="44.74573" lon="6.71279">
        <ele>2128</ele>
        <time>2021-07-13T09:36:58Z</time>
      </trkpt>
      <trkpt lat="44.74554" lon="6.71283">
        <ele>2131.3</ele>
        <time>2021-07-13T09:37:29Z</time>
      </trkpt>
      <trkpt lat="44.74535" lon="6.71283">
        <ele>2136.1</ele>
        <time>2021-07-13T09:38:00Z</time>
      </trkpt>
      <trkpt lat="44.74512" lon="6.71279">
        <ele>2140</ele>
        <time>2021-07-13T09:38:31Z</time>
      </trkpt>
      <trkpt lat="44.74493" lon="6.71275">
        <ele>2146</ele>
        <time>2021-07-13T09:39:02Z</time>
      </trkpt>
      <trkpt lat="44.74472" lon="6.71285">
        <ele>2148.6</ele>
        <time>2021-07-13T09:39:33Z</time>
      </trkpt>
      <trkpt lat="44.74456" lon="6.71301">
        <ele>2154.6</ele>
        <time>2021-07-13T09:40:04Z</time>
      </trkpt>
      <trkpt lat="44.74436" lon="6.71315">
        <ele>2158</ele>
        <time>2021-07-13T09:40:35Z</time>
      </trkpt>
      <trkpt lat="44.7442" lon="6.71311">
        <ele>2162</ele>
        <time>2021-07-13T09:41:06Z</time>
      </trkpt>
      <trkpt lat="44.74404" lon="6.71302">
        <ele>2164.1</ele>
        <time>2021-07-13T09:41:37Z</time>
      </trkpt>
      <trkpt lat="44.7439" lon="6.71311">
        <ele>2167.9</ele>
        <time>2021-07-13T09:42:08Z</time>
      </trkpt>
      <trkpt lat="44.74378" lon="6.7132">
        <ele>2170.6</ele>
        <time>2021-07-13T09:42:39Z</time>
      </trkpt>
      <trkpt lat="44.7436" lon="6.71316">
        <ele>2170.1</ele>
        <time>2021-07-13T09:43:10Z</time>
      </trkpt>
      <trkpt lat="44.7434" lon="6.7131">
        <ele>2176.6</ele>
        <time>2021-07-13T09:43:41Z</time>
      </trkpt>
      <trkpt lat="44.74324" lon="6.71326">
        <ele>2180.5</ele>
        <time>2021-07-13T09:44:12Z</time>
      </trkpt>
      <trkpt lat="44.74308" lon="6.71348">
        <ele>2185</ele>
        <time>2021-07-13T09:44:42Z</time>
      </trkpt>
      <trkpt lat="44.74293" lon="6.71356">
        <ele>2188.4</ele>
        <time>2021-07-13T09:45:13Z</time>
      </trkpt>
      <trkpt lat="44.7428" lon="6.7136">
        <ele>2195.8</ele>
        <time>2021-07-13T09:45:43Z</time>
      </trkpt>
      <trkpt lat="44.7427" lon="6.71372">
        <ele>2199.3</ele>
        <time>2021-07-13T09:46:14Z</time>
      </trkpt>
      <trkpt lat="44.74261" lon="6.71361">
        <ele>2207.2</ele>
        <time>2021-07-13T09:46:45Z</time>
      </trkpt>
      <trkpt lat="44.74252" lon="6.71351">
        <ele>2211.1</ele>
        <time>2021-07-13T09:47:15Z</time>
      </trkpt>
      <trkpt lat="44.74249" lon="6.71333">
        <ele>2217.3</ele>
        <time>2021-07-13T09:47:46Z</time>
      </trkpt>
      <trkpt lat="44.74233" lon="6.71339">
        <ele>2217.9</ele>
        <time>2021-07-13T09:48:17Z</time>
      </trkpt>
      <trkpt lat="44.74221" lon="6.71356">
        <ele>2220.8</ele>
        <time>2021-07-13T09:48:47Z</time>
      </trkpt>
      <trkpt lat="44.74215" lon="6.7137">
        <ele>2220.3</ele>
        <time>2021-07-13T09:49:18Z</time>
      </trkpt>
      <trkpt lat="44.7421" lon="6.71392">
        <ele>2225</ele>
        <time>2021-07-13T09:49:48Z</time>
      </trkpt>
      <trkpt lat="44.74215" lon="6.71409">
        <ele>2229.1</ele>
        <time>2021-07-13T09:50:19Z</time>
      </trkpt>
      <trkpt lat="44.74195" lon="6.71413">
        <ele>2232</ele>
        <time>2021-07-13T09:50:50Z</time>
      </trkpt>
      <trkpt lat="44.74172" lon="6.71432">
        <ele>2236.7</ele>
        <time>2021-07-13T09:51:20Z</time>
      </trkpt>
      <trkpt lat="44.74152" lon="6.71443">
        <ele>2240.1</ele>
        <time>2021-07-13T09:51:51Z</time>
      </trkpt>
      <trkpt lat="44.74135" lon="6.71461">
        <ele>2244.4</ele>
        <time>2021-07-13T09:52:21Z</time>
      </trkpt>
      <trkpt lat="44.74121" lon="6.7147">
        <ele>2247.8</ele>
        <time>2021-07-13T09:52:52Z</time>
      </trkpt>
      <trkpt lat="44.74107" lon="6.71471">
        <ele>2251.6</ele>
        <time>2021-07-13T09:53:22Z</time>
      </trkpt>
      <trkpt lat="44.74091" lon="6.71486">
        <ele>2253.8</ele>
        <time>2021-07-13T09:53:53Z</time>
      </trkpt>
      <trkpt lat="44.74072" lon="6.71491">
        <ele>2258.2</ele>
        <time>2021-07-13T09:54:24Z</time>
      </trkpt>
      <trkpt lat="44.74056" lon="6.71499">
        <ele>2260.1</ele>
        <time>2021-07-13T09:54:55Z</time>
      </trkpt>
      <trkpt lat="44.74038" lon="6.71499">
        <ele>2264.3</ele>
        <time>2021-07-13T09:55:25Z</time>
      </trkpt>
      <trkpt lat="44.74018" lon="6.71496">
        <ele>2268.7</ele>
        <time>2021-07-13T09:55:56Z</time>
      </trkpt>
      <trkpt lat="44.74001" lon="6.71493">
        <ele>2273.3</ele>
        <time>2021-07-13T09:56:26Z</time>
      </trkpt>
      <trkpt lat="44.73981" lon="6.71478">
        <ele>2277.1</ele>
        <time>2021-07-13T09:56:57Z</time>
      </trkpt>
      <trkpt lat="44.73966" lon="6.71458">
        <ele>2281</ele>
        <time>2021-07-13T09:57:28Z</time>
      </trkpt>
      <trkpt lat="44.73958" lon="6.71439">
        <ele>2284.1</ele>
        <time>2021-07-13T09:57:59Z</time>
      </trkpt>
      <trkpt lat="44.73952" lon="6.71429">
        <ele>2283.1</ele>
        <time>2021-07-13T09:58:38Z</time>
      </trkpt>
      <trkpt lat="44.73944" lon="6.71422">
        <ele>2282.1</ele>
        <time>2021-07-13T09:59:19Z</time>
      </trkpt>
      <trkpt lat="44.73927" lon="6.71402">
        <ele>2283.8</ele>
        <time>2021-07-13T09:59:50Z</time>
      </trkpt>
      <trkpt lat="44.73933" lon="6.71381">
        <ele>2289.3</ele>
        <time>2021-07-13T10:00:20Z</time>
      </trkpt>
      <trkpt lat="44.73932" lon="6.71352">
        <ele>2292.8</ele>
        <time>2021-07-13T10:00:51Z</time>
      </trkpt>
      <trkpt lat="44.73913" lon="6.71354">
        <ele>2295.8</ele>
        <time>2021-07-13T10:01:22Z</time>
      </trkpt>
      <trkpt lat="44.73899" lon="6.7136">
        <ele>2299</ele>
        <time>2021-07-13T10:01:53Z</time>
      </trkpt>
      <trkpt lat="44.73877" lon="6.71354">
        <ele>2304.6</ele>
        <time>2021-07-13T10:02:24Z</time>
      </trkpt>
      <trkpt lat="44.73858" lon="6.71344">
        <ele>2308.9</ele>
        <time>2021-07-13T10:02:54Z</time>
      </trkpt>
      <trkpt lat="44.73838" lon="6.71327">
        <ele>2313.1</ele>
        <time>2021-07-13T10:03:25Z</time>
      </trkpt>
      <trkpt lat="44.73826" lon="6.71307">
        <ele>2315.6</ele>
        <time>2021-07-13T10:03:55Z</time>
      </trkpt>
      <trkpt lat="44.73808" lon="6.71308">
        <ele>2318.2</ele>
        <time>2021-07-13T10:04:25Z</time>
      </trkpt>
      <trkpt lat="44.73787" lon="6.713">
        <ele>2322.6</ele>
        <time>2021-07-13T10:04:56Z</time>
      </trkpt>
      <trkpt lat="44.73787" lon="6.71282">
        <ele>2325.2</ele>
        <time>2021-07-13T10:05:27Z</time>
      </trkpt>
      <trkpt lat="44.73786" lon="6.71269">
        <ele>2328.8</ele>
        <time>2021-07-13T10:06:48Z</time>
      </trkpt>
      <trkpt lat="44.73773" lon="6.71259">
        <ele>2330.1</ele>
        <time>2021-07-13T10:07:19Z</time>
      </trkpt>
      <trkpt lat="44.73757" lon="6.71258">
        <ele>2332.8</ele>
        <time>2021-07-13T10:07:50Z</time>
      </trkpt>
      <trkpt lat="44.73741" lon="6.71251">
        <ele>2336.4</ele>
        <time>2021-07-13T10:08:20Z</time>
      </trkpt>
      <trkpt lat="44.73733" lon="6.71245">
        <ele>2341.5</ele>
        <time>2021-07-13T10:08:52Z</time>
      </trkpt>
      <trkpt lat="44.73721" lon="6.71266">
        <ele>2345.7</ele>
        <time>2021-07-13T10:09:22Z</time>
      </trkpt>
      <trkpt lat="44.73703" lon="6.7127">
        <ele>2347.4</ele>
        <time>2021-07-13T10:09:52Z</time>
      </trkpt>
      <trkpt lat="44.73687" lon="6.71263">
        <ele>2354.3</ele>
        <time>2021-07-13T10:10:22Z</time>
      </trkpt>
      <trkpt lat="44.73699" lon="6.71238">
        <ele>2358.2</ele>
        <time>2021-07-13T10:10:53Z</time>
      </trkpt>
      <trkpt lat="44.73689" lon="6.71227">
        <ele>2359.5</ele>
        <time>2021-07-13T10:11:24Z</time>
      </trkpt>
      <trkpt lat="44.73691" lon="6.71206">
        <ele>2363</ele>
        <time>2021-07-13T10:11:54Z</time>
      </trkpt>
      <trkpt lat="44.73687" lon="6.71186">
        <ele>2368.3</ele>
        <time>2021-07-13T10:12:25Z</time>
      </trkpt>
      <trkpt lat="44.73674" lon="6.71189">
        <ele>2372.6</ele>
        <time>2021-07-13T10:12:56Z</time>
      </trkpt>
      <trkpt lat="44.73672" lon="6.71169">
        <ele>2374.5</ele>
        <time>2021-07-13T10:13:27Z</time>
      </trkpt>
      <trkpt lat="44.73654" lon="6.71182">
        <ele>2381.1</ele>
        <time>2021-07-13T10:13:57Z</time>
      </trkpt>
      <trkpt lat="44.73638" lon="6.71193">
        <ele>2386.6</ele>
        <time>2021-07-13T10:14:28Z</time>
      </trkpt>
      <trkpt lat="44.73632" lon="6.71184">
        <ele>2391.1</ele>
        <time>2021-07-13T10:14:59Z</time>
      </trkpt>
      <trkpt lat="44.73634" lon="6.71158">
        <ele>2393.9</ele>
        <time>2021-07-13T10:15:29Z</time>
      </trkpt>
      <trkpt lat="44.73636" lon="6.71135">
        <ele>2398.4</ele>
        <time>2021-07-13T10:15:59Z</time>
      </trkpt>
      <trkpt lat="44.73627" lon="6.71118">
        <ele>2401.1</ele>
        <time>2021-07-13T10:16:30Z</time>
      </trkpt>
      <trkpt lat="44.73619" lon="6.71103">
        <ele>2403.8</ele>
        <time>2021-07-13T10:17:01Z</time>
      </trkpt>
      <trkpt lat="44.73605" lon="6.71105">
        <ele>2408.8</ele>
        <time>2021-07-13T10:17:31Z</time>
      </trkpt>
      <trkpt lat="44.73595" lon="6.71113">
        <ele>2413.2</ele>
        <time>2021-07-13T10:18:01Z</time>
      </trkpt>
      <trkpt lat="44.73586" lon="6.71093">
        <ele>2419.6</ele>
        <time>2021-07-13T10:18:32Z</time>
      </trkpt>
      <trkpt lat="44.73575" lon="6.71094">
        <ele>2426.4</ele>
        <time>2021-07-13T10:19:02Z</time>
      </trkpt>
      <trkpt lat="44.73568" lon="6.71069">
        <ele>2430.4</ele>
        <time>2021-07-13T10:19:33Z</time>
      </trkpt>
      <trkpt lat="44.7356" lon="6.71076">
        <ele>2435.2</ele>
        <time>2021-07-13T10:20:05Z</time>
      </trkpt>
      <trkpt lat="44.73553" lon="6.71058">
        <ele>2438.4</ele>
        <time>2021-07-13T10:20:35Z</time>
      </trkpt>
      <trkpt lat="44.73539" lon="6.71064">
        <ele>2444.2</ele>
        <time>2021-07-13T10:21:06Z</time>
      </trkpt>
      <trkpt lat="44.73528" lon="6.71068">
        <ele>2450.1</ele>
        <time>2021-07-13T10:21:36Z</time>
      </trkpt>
      <trkpt lat="44.73513" lon="6.71073">
        <ele>2450.9</ele>
        <time>2021-07-13T10:22:07Z</time>
      </trkpt>
      <trkpt lat="44.73513" lon="6.71086">
        <ele>2450</ele>
        <time>2021-07-13T10:23:10Z</time>
      </trkpt>
      <trkpt lat="44.73505" lon="6.71082">
        <ele>2446.7</ele>
        <time>2021-07-13T10:25:16Z</time>
      </trkpt>
      <trkpt lat="44.73491" lon="6.71055">
        <ele>2444.1</ele>
        <time>2021-07-13T10:25:47Z</time>
      </trkpt>
      <trkpt lat="44.73476" lon="6.71022">
        <ele>2443.2</ele>
        <time>2021-07-13T10:26:18Z</time>
      </trkpt>
      <trkpt lat="44.73449" lon="6.71023">
        <ele>2438.6</ele>
        <time>2021-07-13T10:26:49Z</time>
      </trkpt>
      <trkpt lat="44.73426" lon="6.71017">
        <ele>2437.5</ele>
        <time>2021-07-13T10:27:19Z</time>
      </trkpt>
      <trkpt lat="44.73412" lon="6.71005">
        <ele>2437.7</ele>
        <time>2021-07-13T10:27:49Z</time>
      </trkpt>
      <trkpt lat="44.73392" lon="6.70986">
        <ele>2432.8</ele>
        <time>2021-07-13T10:28:19Z</time>
      </trkpt>
      <trkpt lat="44.73367" lon="6.70959">
        <ele>2427.2</ele>
        <time>2021-07-13T10:28:49Z</time>
      </trkpt>
      <trkpt lat="44.73347" lon="6.70926">
        <ele>2422</ele>
        <time>2021-07-13T10:29:19Z</time>
      </trkpt>
      <trkpt lat="44.73334" lon="6.70893">
        <ele>2422.2</ele>
        <time>2021-07-13T10:29:50Z</time>
      </trkpt>
      <trkpt lat="44.7333" lon="6.70854">
        <ele>2419.7</ele>
        <time>2021-07-13T10:30:20Z</time>
      </trkpt>
      <trkpt lat="44.73302" lon="6.70829">
        <ele>2418.2</ele>
        <time>2021-07-13T10:30:51Z</time>
      </trkpt>
      <trkpt lat="44.73272" lon="6.708">
        <ele>2414.2</ele>
        <time>2021-07-13T10:31:22Z</time>
      </trkpt>
      <trkpt lat="44.73261" lon="6.70785">
        <ele>2411.6</ele>
        <time>2021-07-13T10:31:52Z</time>
      </trkpt>
      <trkpt lat="44.73265" lon="6.70773">
        <ele>2409</ele>
        <time>2021-07-13T10:32:23Z</time>
      </trkpt>
      <trkpt lat="44.73273" lon="6.7076">
        <ele>2408.6</ele>
        <time>2021-07-13T10:32:54Z</time>
      </trkpt>
      <trkpt lat="44.73213" lon="6.70689">
        <ele>2407.2</ele>
        <time>2021-07-13T11:00:17Z</time>
      </trkpt>
      <trkpt lat="44.73281" lon="6.70753">
        <ele>2410.5</ele>
        <time>2021-07-13T11:00:48Z</time>
      </trkpt>
      <trkpt lat="44.73272" lon="6.70752">
        <ele>2411.3</ele>
        <time>2021-07-13T11:13:04Z</time>
      </trkpt>
      <trkpt lat="44.73266" lon="6.70762">
        <ele>2409.6</ele>
        <time>2021-07-13T11:17:12Z</time>
      </trkpt>
      <trkpt lat="44.73264" lon="6.70749">
        <ele>2405.4</ele>
        <time>2021-07-13T11:17:43Z</time>
      </trkpt>
      <trkpt lat="44.7327" lon="6.70722">
        <ele>2404.9</ele>
        <time>2021-07-13T11:18:13Z</time>
      </trkpt>
      <trkpt lat="44.73283" lon="6.70685">
        <ele>2401.8</ele>
        <time>2021-07-13T11:18:44Z</time>
      </trkpt>
      <trkpt lat="44.73276" lon="6.70651">
        <ele>2399.1</ele>
        <time>2021-07-13T11:19:15Z</time>
      </trkpt>
      <trkpt lat="44.73271" lon="6.70625">
        <ele>2396.4</ele>
        <time>2021-07-13T11:19:46Z</time>
      </trkpt>
      <trkpt lat="44.73263" lon="6.70589">
        <ele>2392.6</ele>
        <time>2021-07-13T11:20:16Z</time>
      </trkpt>
      <trkpt lat="44.73261" lon="6.70552">
        <ele>2383</ele>
        <time>2021-07-13T11:20:47Z</time>
      </trkpt>
      <trkpt lat="44.73263" lon="6.70511">
        <ele>2379</ele>
        <time>2021-07-13T11:21:17Z</time>
      </trkpt>
      <trkpt lat="44.73267" lon="6.7048">
        <ele>2376.8</ele>
        <time>2021-07-13T11:21:48Z</time>
      </trkpt>
      <trkpt lat="44.73288" lon="6.70453">
        <ele>2372.7</ele>
        <time>2021-07-13T11:22:18Z</time>
      </trkpt>
      <trkpt lat="44.73311" lon="6.70439">
        <ele>2368.9</ele>
        <time>2021-07-13T11:22:48Z</time>
      </trkpt>
      <trkpt lat="44.73335" lon="6.70431">
        <ele>2363.9</ele>
        <time>2021-07-13T11:23:19Z</time>
      </trkpt>
      <trkpt lat="44.73347" lon="6.70412">
        <ele>2362.5</ele>
        <time>2021-07-13T11:23:49Z</time>
      </trkpt>
      <trkpt lat="44.73365" lon="6.70391">
        <ele>2358</ele>
        <time>2021-07-13T11:24:19Z</time>
      </trkpt>
      <trkpt lat="44.73383" lon="6.70375">
        <ele>2354.1</ele>
        <time>2021-07-13T11:24:50Z</time>
      </trkpt>
      <trkpt lat="44.7339" lon="6.70358">
        <ele>2348.7</ele>
        <time>2021-07-13T11:25:20Z</time>
      </trkpt>
      <trkpt lat="44.73382" lon="6.70319">
        <ele>2343.7</ele>
        <time>2021-07-13T11:25:51Z</time>
      </trkpt>
      <trkpt lat="44.73381" lon="6.70284">
        <ele>2339.7</ele>
        <time>2021-07-13T11:26:21Z</time>
      </trkpt>
      <trkpt lat="44.73367" lon="6.70247">
        <ele>2338.9</ele>
        <time>2021-07-13T11:26:51Z</time>
      </trkpt>
      <trkpt lat="44.73349" lon="6.7028">
        <ele>2329.4</ele>
        <time>2021-07-13T11:27:22Z</time>
      </trkpt>
      <trkpt lat="44.73344" lon="6.70319">
        <ele>2320.4</ele>
        <time>2021-07-13T11:27:52Z</time>
      </trkpt>
      <trkpt lat="44.73314" lon="6.70333">
        <ele>2320.5</ele>
        <time>2021-07-13T11:28:22Z</time>
      </trkpt>
      <trkpt lat="44.73284" lon="6.70328">
        <ele>2318.6</ele>
        <time>2021-07-13T11:28:53Z</time>
      </trkpt>
      <trkpt lat="44.73254" lon="6.70319">
        <ele>2314.5</ele>
        <time>2021-07-13T11:29:24Z</time>
      </trkpt>
      <trkpt lat="44.73226" lon="6.70314">
        <ele>2304.7</ele>
        <time>2021-07-13T11:29:55Z</time>
      </trkpt>
      <trkpt lat="44.73198" lon="6.70308">
        <ele>2297.5</ele>
        <time>2021-07-13T11:30:26Z</time>
      </trkpt>
      <trkpt lat="44.73177" lon="6.70315">
        <ele>2294.1</ele>
        <time>2021-07-13T11:30:56Z</time>
      </trkpt>
      <trkpt lat="44.73157" lon="6.70302">
        <ele>2287.7</ele>
        <time>2021-07-13T11:31:27Z</time>
      </trkpt>
      <trkpt lat="44.73156" lon="6.70275">
        <ele>2287.1</ele>
        <time>2021-07-13T11:31:58Z</time>
      </trkpt>
      <trkpt lat="44.73156" lon="6.70234">
        <ele>2282.6</ele>
        <time>2021-07-13T11:32:29Z</time>
      </trkpt>
      <trkpt lat="44.73162" lon="6.702">
        <ele>2276.2</ele>
        <time>2021-07-13T11:33:00Z</time>
      </trkpt>
      <trkpt lat="44.73138" lon="6.7017">
        <ele>2269.6</ele>
        <time>2021-07-13T11:33:31Z</time>
      </trkpt>
      <trkpt lat="44.73117" lon="6.70144">
        <ele>2264.2</ele>
        <time>2021-07-13T11:34:01Z</time>
      </trkpt>
      <trkpt lat="44.73111" lon="6.70126">
        <ele>2263.4</ele>
        <time>2021-07-13T11:34:32Z</time>
      </trkpt>
      <trkpt lat="44.73116" lon="6.70115">
        <ele>2259.1</ele>
        <time>2021-07-13T11:38:10Z</time>
      </trkpt>
      <trkpt lat="44.73112" lon="6.70102">
        <ele>2255.6</ele>
        <time>2021-07-13T11:39:39Z</time>
      </trkpt>
      <trkpt lat="44.73109" lon="6.70085">
        <ele>2258</ele>
        <time>2021-07-13T11:40:09Z</time>
      </trkpt>
      <trkpt lat="44.73111" lon="6.70054">
        <ele>2255.6</ele>
        <time>2021-07-13T11:40:39Z</time>
      </trkpt>
      <trkpt lat="44.7312" lon="6.70023">
        <ele>2251</ele>
        <time>2021-07-13T11:41:10Z</time>
      </trkpt>
      <trkpt lat="44.73128" lon="6.69998">
        <ele>2246.4</ele>
        <time>2021-07-13T11:41:40Z</time>
      </trkpt>
      <trkpt lat="44.73131" lon="6.69985">
        <ele>2243.2</ele>
        <time>2021-07-13T11:44:11Z</time>
      </trkpt>
      <trkpt lat="44.73126" lon="6.69946">
        <ele>2239</ele>
        <time>2021-07-13T11:44:41Z</time>
      </trkpt>
      <trkpt lat="44.73131" lon="6.69957">
        <ele>2235.2</ele>
        <time>2021-07-13T11:45:28Z</time>
      </trkpt>
      <trkpt lat="44.73132" lon="6.69986">
        <ele>2237.6</ele>
        <time>2021-07-13T11:45:59Z</time>
      </trkpt>
      <trkpt lat="44.73114" lon="6.7001">
        <ele>2242.7</ele>
        <time>2021-07-13T11:46:29Z</time>
      </trkpt>
      <trkpt lat="44.73086" lon="6.70029">
        <ele>2243.8</ele>
        <time>2021-07-13T11:47:00Z</time>
      </trkpt>
      <trkpt lat="44.73053" lon="6.70039">
        <ele>2242.9</ele>
        <time>2021-07-13T11:47:30Z</time>
      </trkpt>
      <trkpt lat="44.73033" lon="6.70058">
        <ele>2238.3</ele>
        <time>2021-07-13T11:48:01Z</time>
      </trkpt>
      <trkpt lat="44.73029" lon="6.70075">
        <ele>2233.3</ele>
        <time>2021-07-13T11:48:31Z</time>
      </trkpt>
      <trkpt lat="44.73032" lon="6.70087">
        <ele>2233.1</ele>
        <time>2021-07-13T11:49:10Z</time>
      </trkpt>
      <trkpt lat="44.73036" lon="6.70127">
        <ele>2237.4</ele>
        <time>2021-07-13T11:49:41Z</time>
      </trkpt>
      <trkpt lat="44.7301" lon="6.70153">
        <ele>2237.1</ele>
        <time>2021-07-13T11:50:12Z</time>
      </trkpt>
      <trkpt lat="44.72985" lon="6.70169">
        <ele>2236</ele>
        <time>2021-07-13T11:50:42Z</time>
      </trkpt>
      <trkpt lat="44.72977" lon="6.70176">
        <ele>2233.8</ele>
        <time>2021-07-13T11:51:29Z</time>
      </trkpt>
      <trkpt lat="44.72963" lon="6.70186">
        <ele>2235.5</ele>
        <time>2021-07-13T11:52:00Z</time>
      </trkpt>
      <trkpt lat="44.72938" lon="6.70201">
        <ele>2237.3</ele>
        <time>2021-07-13T11:52:31Z</time>
      </trkpt>
      <trkpt lat="44.72914" lon="6.70228">
        <ele>2233.3</ele>
        <time>2021-07-13T11:53:01Z</time>
      </trkpt>
      <trkpt lat="44.72892" lon="6.7025">
        <ele>2231.7</ele>
        <time>2021-07-13T11:53:32Z</time>
      </trkpt>
      <trkpt lat="44.72888" lon="6.70289">
        <ele>2223.8</ele>
        <time>2021-07-13T11:54:03Z</time>
      </trkpt>
      <trkpt lat="44.729" lon="6.70329">
        <ele>2220.3</ele>
        <time>2021-07-13T11:54:34Z</time>
      </trkpt>
      <trkpt lat="44.729" lon="6.70372">
        <ele>2222.5</ele>
        <time>2021-07-13T11:55:05Z</time>
      </trkpt>
      <trkpt lat="44.72914" lon="6.70412">
        <ele>2222.6</ele>
        <time>2021-07-13T11:55:36Z</time>
      </trkpt>
      <trkpt lat="44.72927" lon="6.70449">
        <ele>2223</ele>
        <time>2021-07-13T11:56:07Z</time>
      </trkpt>
      <trkpt lat="44.72927" lon="6.70493">
        <ele>2225.3</ele>
        <time>2021-07-13T11:56:38Z</time>
      </trkpt>
      <trkpt lat="44.72936" lon="6.70531">
        <ele>2225.8</ele>
        <time>2021-07-13T11:57:09Z</time>
      </trkpt>
      <trkpt lat="44.72938" lon="6.70575">
        <ele>2225.3</ele>
        <time>2021-07-13T11:57:40Z</time>
      </trkpt>
      <trkpt lat="44.72915" lon="6.70602">
        <ele>2229.4</ele>
        <time>2021-07-13T11:58:11Z</time>
      </trkpt>
      <trkpt lat="44.72903" lon="6.70628">
        <ele>2226.5</ele>
        <time>2021-07-13T11:58:42Z</time>
      </trkpt>
      <trkpt lat="44.72883" lon="6.70649">
        <ele>2224.1</ele>
        <time>2021-07-13T11:59:12Z</time>
      </trkpt>
      <trkpt lat="44.72873" lon="6.70681">
        <ele>2222.7</ele>
        <time>2021-07-13T11:59:43Z</time>
      </trkpt>
      <trkpt lat="44.72861" lon="6.70709">
        <ele>2223.1</ele>
        <time>2021-07-13T12:00:14Z</time>
      </trkpt>
      <trkpt lat="44.72852" lon="6.7073">
        <ele>2227.3</ele>
        <time>2021-07-13T12:00:45Z</time>
      </trkpt>
      <trkpt lat="44.72846" lon="6.7076">
        <ele>2234.1</ele>
        <time>2021-07-13T12:01:16Z</time>
      </trkpt>
      <trkpt lat="44.72842" lon="6.70799">
        <ele>2235.1</ele>
        <time>2021-07-13T12:01:47Z</time>
      </trkpt>
      <trkpt lat="44.72841" lon="6.70839">
        <ele>2232.6</ele>
        <time>2021-07-13T12:02:18Z</time>
      </trkpt>
      <trkpt lat="44.72832" lon="6.70879">
        <ele>2230.4</ele>
        <time>2021-07-13T12:02:49Z</time>
      </trkpt>
      <trkpt lat="44.72826" lon="6.70915">
        <ele>2230.1</ele>
        <time>2021-07-13T12:03:20Z</time>
      </trkpt>
      <trkpt lat="44.72824" lon="6.7094">
        <ele>2233.9</ele>
        <time>2021-07-13T12:03:51Z</time>
      </trkpt>
      <trkpt lat="44.72815" lon="6.7097">
        <ele>2231.6</ele>
        <time>2021-07-13T12:04:21Z</time>
      </trkpt>
      <trkpt lat="44.72818" lon="6.70985">
        <ele>2232.7</ele>
        <time>2021-07-13T12:04:51Z</time>
      </trkpt>
      <trkpt lat="44.72824" lon="6.7102">
        <ele>2230.7</ele>
        <time>2021-07-13T12:05:22Z</time>
      </trkpt>
      <trkpt lat="44.72819" lon="6.71057">
        <ele>2233.4</ele>
        <time>2021-07-13T12:05:52Z</time>
      </trkpt>
      <trkpt lat="44.72808" lon="6.71097">
        <ele>2237.4</ele>
        <time>2021-07-13T12:06:23Z</time>
      </trkpt>
      <trkpt lat="44.72798" lon="6.71124">
        <ele>2242.3</ele>
        <time>2021-07-13T12:06:53Z</time>
      </trkpt>
      <trkpt lat="44.72782" lon="6.71146">
        <ele>2246.5</ele>
        <time>2021-07-13T12:07:24Z</time>
      </trkpt>
      <trkpt lat="44.72775" lon="6.71181">
        <ele>2247.4</ele>
        <time>2021-07-13T12:07:54Z</time>
      </trkpt>
      <trkpt lat="44.72758" lon="6.71202">
        <ele>2247.1</ele>
        <time>2021-07-13T12:08:25Z</time>
      </trkpt>
    </trkseg>
  </trk>
</gpx>